Time;durP1;ratioP1;P1;durP2;ratioP2;P2;SDS_P1;SDS_P2;PMS_P1;PMS_P2;Temp;Humidity;BMP_temperature;BMP_pressure;BME280_temperature;BME280_humidity;BME280_pressure;Samples;Min_cycle;Max_cycle;Signal;HPM_P1;HPM_P2
2022/08/23 00:00:26;;;;;;;2.88;1.90;;;19.60;66.40;;;;;;6197259;28;20427;-77
2022/08/23 00:03:28;;;;;;;5.18;1.80;;;19.60;67.00;;;;;;6199113;28;20077;-76
2022/08/23 00:06:32;;;;;;;2.70;1.40;;;19.60;67.10;;;;;;6198795;28;20057;-76
2022/08/23 00:09:33;;;;;;;4.35;2.33;;;19.50;67.40;;;;;;6202221;28;20058;-75
2022/08/23 00:12:35;;;;;;;2.55;1.73;;;19.50;67.20;;;;;;6210757;28;20046;-76
2022/08/23 00:15:37;;;;;;;7.38;1.75;;;19.40;67.30;;;;;;6226312;28;20392;-76
2022/08/23 00:18:40;;;;;;;3.28;2.03;;;19.50;67.70;;;;;;6226867;28;20388;-76
2022/08/23 00:21:44;;;;;;;6.80;2.55;;;19.40;67.80;;;;;;6227308;28;20177;-76
2022/08/23 00:24:45;;;;;;;7.32;1.83;;;19.30;68.20;;;;;;6227033;28;20056;-76
2022/08/23 00:27:47;;;;;;;2.65;1.63;;;19.30;68.80;;;;;;6226893;28;20175;-76
2022/08/23 00:30:49;;;;;;;3.65;1.50;;;19.20;69.40;;;;;;6223662;28;20057;-76
2022/08/23 00:33:51;;;;;;;4.30;2.05;;;19.30;69.90;;;;;;6178063;28;20047;-76
2022/08/23 00:36:54;;;;;;;5.18;1.92;;;19.20;70.10;;;;;;6178440;28;20456;-76
2022/08/23 00:39:56;;;;;;;3.75;2.05;;;19.10;70.50;;;;;;6178032;28;20047;-76
2022/08/23 00:49:59;;;;;;;5.80;2.67;;;18.80;73.00;;;;;;6178111;28;20125;-76
2022/08/23 00:53:07;;;;;;;3.85;2.28;;;18.80;73.60;;;;;;6177913;28;20049;-76
2022/08/23 00:56:12;;;;;;;3.72;2.72;;;18.70;74.00;;;;;;6177801;28;20043;-76
2022/08/23 00:59:13;;;;;;;5.90;2.28;;;18.70;74.10;;;;;;6177645;28;20047;-76
2022/08/23 01:02:16;;;;;;;3.45;2.10;;;18.60;74.50;;;;;;6177496;28;20046;-76
2022/08/23 01:05:19;;;;;;;3.88;2.60;;;18.60;74.70;;;;;;6177926;28;20055;-76
2022/08/23 01:08:24;;;;;;;5.32;2.28;;;18.60;75.60;;;;;;6176976;28;20047;-76
2022/08/23 01:11:32;;;;;;;3.97;2.90;;;18.60;75.60;;;;;;6177532;28;20532;-76
2022/08/23 01:14:38;;;;;;;5.88;2.67;;;18.50;76.10;;;;;;6176500;28;20416;-75
2022/08/23 01:17:43;;;;;;;5.47;2.40;;;18.40;76.00;;;;;;6178178;28;20062;-76
2022/08/23 01:20:50;;;;;;;5.63;2.60;;;18.30;76.10;;;;;;6176825;28;20133;-76
2022/08/23 01:23:57;;;;;;;4.22;2.55;;;18.20;76.20;;;;;;6177001;28;20046;-75
2022/08/23 01:26:59;;;;;;;3.88;2.70;;;18.10;76.70;;;;;;6177184;28;20050;-76
2022/08/23 01:30:03;;;;;;;3.65;2.35;;;18.10;77.00;;;;;;6178288;28;20055;-76
2022/08/23 01:33:06;;;;;;;7.00;2.10;;;18.00;77.10;;;;;;6176015;28;20070;-76
2022/08/23 01:36:10;;;;;;;3.47;2.53;;;17.90;77.50;;;;;;6176885;28;20058;-76
2022/08/23 01:39:13;;;;;;;3.85;2.50;;;17.90;77.80;;;;;;6176954;28;20414;-76
2022/08/23 01:42:15;;;;;;;3.72;2.30;;;17.90;78.20;;;;;;6177733;28;20054;-76
2022/08/23 01:45:17;;;;;;;5.03;2.22;;;17.80;78.40;;;;;;6177911;28;20057;-76
2022/08/23 01:48:20;;;;;;;5.15;1.98;;;17.80;79.00;;;;;;6176803;28;20664;-76
2022/08/23 01:51:22;;;;;;;4.55;2.45;;;17.80;79.00;;;;;;6177611;28;20055;-75
2022/08/23 01:54:25;;;;;;;4.50;2.78;;;17.80;79.00;;;;;;6177919;28;20051;-76
2022/08/23 01:57:27;;;;;;;5.28;2.42;;;17.80;79.20;;;;;;6177656;28;20050;-75
2022/08/23 02:00:34;;;;;;;3.17;1.85;;;17.70;79.20;;;;;;6177147;28;20046;-76
2022/08/23 02:03:36;;;;;;;4.18;2.22;;;17.70;79.60;;;;;;6177443;28;20047;-76
2022/08/23 02:06:38;;;;;;;5.78;2.45;;;17.60;80.10;;;;;;6177088;28;20130;-76
2022/08/23 02:09:42;;;;;;;6.38;2.13;;;17.60;80.60;;;;;;6176875;28;20047;-76
2022/08/23 02:12:44;;;;;;;8.75;3.08;;;17.60;80.70;;;;;;6196911;28;20064;-76
2022/08/23 02:15:49;;;;;;;4.50;2.35;;;17.60;80.50;;;;;;6225261;28;20049;-76
2022/08/23 02:18:52;;;;;;;4.07;2.58;;;17.60;80.20;;;;;;6225786;28;20404;-77
2022/08/23 02:21:54;;;;;;;4.43;2.92;;;17.60;80.00;;;;;;6226708;28;20050;-77
2022/08/23 02:24:57;;;;;;;5.63;2.72;;;17.60;80.20;;;;;;6226185;28;20042;-76
2022/08/23 02:27:59;;;;;;;5.78;3.30;;;17.60;80.20;;;;;;6225334;28;20054;-76
2022/08/23 02:31:01;;;;;;;4.88;2.45;;;17.50;81.00;;;;;;6225949;28;20478;-76
2022/08/23 02:34:04;;;;;;;8.90;2.70;;;17.40;80.80;;;;;;6198653;28;20046;-77
2022/08/23 02:37:06;;;;;;;5.30;2.63;;;17.40;81.20;;;;;;6177983;28;20053;-76
2022/08/23 02:40:11;;;;;;;4.55;3.17;;;17.30;81.40;;;;;;6177354;28;20051;-77
2022/08/23 02:43:12;;;;;;;4.95;2.20;;;17.30;82.00;;;;;;6177856;28;20047;-77
2022/08/23 02:46:14;;;;;;;4.53;2.75;;;17.20;82.20;;;;;;6178017;28;20061;-77
2022/08/23 02:49:16;;;;;;;5.35;3.10;;;17.20;82.50;;;;;;6177089;28;20074;-76
2022/08/23 02:52:18;;;;;;;4.95;2.90;;;17.20;82.80;;;;;;6176336;28;20677;-76
2022/08/23 02:55:22;;;;;;;5.20;3.42;;;17.20;82.80;;;;;;6176145;28;20062;-77
2022/08/23 02:58:24;;;;;;;5.57;2.80;;;17.20;83.10;;;;;;6175627;28;20050;-77
2022/08/23 03:01:30;;;;;;;5.07;3.30;;;17.10;83.50;;;;;;6176723;28;20050;-77
2022/08/23 03:04:31;;;;;;;7.25;2.88;;;17.10;83.60;;;;;;6176286;28;20062;-76
2022/08/23 03:07:33;;;;;;;6.22;3.15;;;17.00;83.60;;;;;;6176046;28;20051;-77
2022/08/23 03:10:38;;;;;;;4.95;3.35;;;17.00;84.00;;;;;;6176630;28;20043;-76
2022/08/23 03:13:40;;;;;;;4.78;2.60;;;16.90;84.10;;;;;;6211695;28;20550;-76
2022/08/23 03:16:42;;;;;;;4.70;2.85;;;16.80;84.50;;;;;;6223984;28;20049;-77
2022/08/23 03:19:44;;;;;;;7.18;3.33;;;16.90;85.00;;;;;;6224818;28;20515;-76
2022/08/23 03:22:46;;;;;;;5.38;2.97;;;16.80;85.10;;;;;;6225464;28;20052;-76
2022/08/23 03:25:49;;;;;;;3.53;2.35;;;16.80;85.20;;;;;;6224562;28;20056;-77
2022/08/23 03:28:50;;;;;;;3.90;2.78;;;16.80;85.30;;;;;;6224392;28;20054;-76
2022/08/23 03:31:52;;;;;;;4.95;2.75;;;16.70;85.70;;;;;;6223884;28;20129;-77
2022/08/23 03:34:54;;;;;;;4.97;2.80;;;16.70;85.60;;;;;;6206306;28;20632;-76
2022/08/23 03:37:56;;;;;;;4.65;2.92;;;16.70;85.80;;;;;;6177389;28;20073;-77
2022/08/23 03:41:00;;;;;;;5.07;3.10;;;16.70;85.90;;;;;;6175757;28;20536;-77
2022/08/23 03:44:01;;;;;;;4.97;2.67;;;16.60;86.00;;;;;;6175517;28;20140;-79
2022/08/23 03:47:04;;;;;;;8.70;2.88;;;16.70;86.10;;;;;;6176367;28;20046;-77
2022/08/23 03:50:08;;;;;;;6.75;3.42;;;16.60;86.10;;;;;;6176638;28;20082;-77
2022/08/23 03:53:11;;;;;;;5.07;3.15;;;16.60;86.30;;;;;;6176581;28;20050;-76
2022/08/23 03:56:23;;;;;;;7.60;2.50;;;16.60;86.60;;;;;;6176312;28;20070;-77
2022/08/23 03:59:25;;;;;;;4.53;2.78;;;16.50;86.60;;;;;;6176147;28;20050;-77
2022/08/23 04:02:27;;;;;;;4.57;2.92;;;16.50;86.60;;;;;;6176084;28;20134;-76
2022/08/23 04:05:29;;;;;;;5.93;2.85;;;16.50;87.00;;;;;;6176611;28;20050;-79
2022/08/23 04:08:30;;;;;;;8.32;3.40;;;16.50;87.30;;;;;;6175710;28;20055;-76
2022/08/23 04:11:33;;;;;;;7.55;4.15;;;16.50;87.00;;;;;;6176053;28;20054;-77
2022/08/23 04:14:35;;;;;;;5.88;2.53;;;16.50;87.00;;;;;;6176372;28;20047;-76
2022/08/23 04:17:37;;;;;;;6.28;2.80;;;16.50;86.90;;;;;;6176004;28;20051;-77
2022/08/23 04:20:39;;;;;;;5.10;3.00;;;16.50;86.90;;;;;;6176013;28;20054;-77
2022/08/23 04:23:42;;;;;;;6.45;3.47;;;16.50;86.80;;;;;;6176081;28;20051;-76
2022/08/23 04:26:45;;;;;;;4.30;2.85;;;16.40;86.80;;;;;;6177197;28;20049;-76
2022/08/23 04:29:46;;;;;;;4.72;2.58;;;16.40;86.80;;;;;;6176550;28;20046;-80
2022/08/23 04:32:48;;;;;;;7.25;3.03;;;16.30;87.20;;;;;;6176747;28;20047;-76
2022/08/23 04:35:50;;;;;;;4.63;3.10;;;16.30;87.30;;;;;;6179815;28;20050;-76
2022/08/23 04:38:52;;;;;;;6.60;3.60;;;16.30;87.50;;;;;;6198270;28;20519;-77
2022/08/23 04:45:14;;;;;;;8.45;2.90;;;16.20;88.10;;;;;;6199988;28;20047;-77
2022/08/23 04:48:16;;;;;;;5.68;3.22;;;16.30;88.20;;;;;;6199313;28;20108;-75
2022/08/23 04:51:18;;;;;;;6.22;2.95;;;16.30;88.30;;;;;;6202663;28;20097;-78
2022/08/23 04:54:20;;;;;;;5.78;2.67;;;16.40;88.10;;;;;;6204670;28;20647;-76
2022/08/23 04:57:23;;;;;;;4.65;3.15;;;16.50;87.90;;;;;;6203872;28;20177;-76
2022/08/23 05:00:24;;;;;;;4.90;3.05;;;16.50;87.80;;;;;;6203497;28;20046;-77
2022/08/23 05:03:27;;;;;;;4.30;2.90;;;16.60;87.50;;;;;;6203494;28;20508;-77
2022/08/23 05:06:30;;;;;;;6.22;3.00;;;16.80;87.10;;;;;;6203736;28;20057;-79
2022/08/23 05:09:31;;;;;;;5.82;3.40;;;16.90;86.70;;;;;;6203706;28;20416;-77
2022/08/23 05:12:35;;;;;;;4.55;3.00;;;17.00;86.50;;;;;;6211306;28;20046;-76
2022/08/23 05:15:36;;;;;;;8.73;2.88;;;17.20;86.10;;;;;;6226883;28;20665;-76
2022/08/23 05:18:38;;;;;;;5.13;2.95;;;17.40;85.50;;;;;;6227616;28;20045;-76
2022/08/23 05:21:40;;;;;;;8.18;2.97;;;17.50;84.80;;;;;;6227582;28;20080;-77
2022/08/23 05:24:42;;;;;;;4.80;2.42;;;17.60;84.40;;;;;;6227254;28;20038;-77
2022/08/23 05:27:45;;;;;;;4.03;2.33;;;17.80;83.90;;;;;;6226773;28;20052;-77
2022/08/23 05:30:55;;;;;;;10.35;2.80;;;18.00;83.00;;;;;;6225757;28;20212;-76
2022/08/23 05:33:57;;;;;;;4.82;2.63;;;18.30;82.20;;;;;;6229800;28;20042;-77
2022/08/23 05:36:59;;;;;;;5.20;3.00;;;18.50;81.60;;;;;;6204575;28;20050;-76
2022/08/23 05:40:01;;;;;;;3.53;2.78;;;18.70;80.90;;;;;;6203866;28;20051;-77
2022/08/23 05:43:04;;;;;;;6.20;2.70;;;19.00;80.20;;;;;;6205129;28;20049;-76
2022/08/23 05:46:11;;;;;;;6.40;3.00;;;19.30;79.30;;;;;;6205411;28;20050;-78
2022/08/23 05:49:12;;;;;;;3.70;2.08;;;19.50;78.60;;;;;;6203633;28;20519;-77
2022/08/23 05:52:14;;;;;;;5.60;2.25;;;19.80;77.70;;;;;;6203880;28;20046;-77
2022/08/23 05:55:16;;;;;;;5.32;2.33;;;20.10;76.70;;;;;;6200309;28;20060;-78
2022/08/23 05:58:19;;;;;;;6.70;2.65;;;20.60;75.90;;;;;;6199414;28;20492;-77
2022/08/23 06:01:22;;;;;;;5.43;2.40;;;21.60;72.60;;;;;;6199954;28;20505;-76
2022/08/23 06:04:24;;;;;;;8.18;2.47;;;23.00;68.40;;;;;;6200229;28;20126;-78
2022/08/23 06:07:26;;;;;;;8.10;2.53;;;24.40;63.70;;;;;;6200089;28;20050;-78
2022/08/23 06:10:28;;;;;;;5.30;2.42;;;25.20;60.60;;;;;;6199616;28;20411;-78
2022/08/23 06:13:31;;;;;;;66.13;8.07;;;25.40;59.20;;;;;;6199941;28;20057;-79
2022/08/23 06:16:36;;;;;;;6.32;2.67;;;25.50;58.80;;;;;;6167249;28;20056;-80
2022/08/23 06:19:38;;;;;;;2.90;2.03;;;25.50;58.10;;;;;;6194437;28;20046;-77
2022/08/23 06:22:40;;;;;;;4.53;2.15;;;25.60;57.60;;;;;;6217988;22;20070;-81
2022/08/23 06:25:41;;;;;;;5.47;2.63;;;25.80;57.00;;;;;;6207295;28;20491;-81
2022/08/23 06:28:45;;;;;;;148.90;11.82;;;26.10;56.50;;;;;;6207044;28;20049;-82
2022/08/23 06:31:50;;;;;;;6.35;4.10;;;26.40;55.50;;;;;;6221097;28;20046;-82
2022/08/23 06:34:52;;;;;;;5.35;2.60;;;26.80;54.40;;;;;;6231359;28;20046;-81
2022/08/23 06:37:53;;;;;;;13.45;2.80;;;27.50;53.10;;;;;;6211211;28;20074;-81
2022/08/23 06:41:00;;;;;;;12.50;2.95;;;28.50;51.00;;;;;;6204364;28;20418;-81
2022/08/23 06:44:03;;;;;;;4.68;2.50;;;29.50;48.80;;;;;;6205736;28;20046;-83
2022/08/23 06:47:07;;;;;;;5.82;2.50;;;30.40;47.00;;;;;;6207717;28;20053;-82
2022/08/23 06:50:09;;;;;;;5.22;2.30;;;31.40;45.30;;;;;;6204863;28;20068;-81
2022/08/23 06:53:11;;;;;;;3.42;1.95;;;32.10;43.80;;;;;;6204347;28;20046;-82
2022/08/23 06:56:13;;;;;;;4.25;2.22;;;32.30;42.80;;;;;;6203595;28;20133;-82
2022/08/23 06:59:17;;;;;;;4.45;2.22;;;32.30;42.30;;;;;;6207303;28;20050;-82
2022/08/23 07:02:19;;;;;;;7.55;2.00;;;32.00;42.80;;;;;;6203713;28;20526;-82
2022/08/23 07:05:21;;;;;;;5.30;2.17;;;31.90;42.60;;;;;;6204956;28;20141;-82
2022/08/23 07:08:22;;;;;;;4.13;1.50;;;31.70;43.20;;;;;;6203471;28;20042;-82
2022/08/23 07:11:25;;;;;;;5.15;2.13;;;31.50;43.40;;;;;;6203939;28;20259;-82
2022/08/23 07:14:29;;;;;;;6.78;1.77;;;31.20;44.20;;;;;;6202178;28;20492;-82
2022/08/23 07:17:30;;;;;;;11.70;2.13;;;31.10;44.10;;;;;;6204254;28;20504;-81
2022/08/23 07:20:32;;;;;;;6.47;1.77;;;31.20;43.70;;;;;;6202938;28;20043;-82
2022/08/23 07:23:35;;;;;;;5.28;1.17;;;31.60;44.10;;;;;;6205804;28;20043;-81
2022/08/23 07:26:38;;;;;;;5.63;1.38;;;32.00;42.10;;;;;;6206473;28;20046;-81
2022/08/23 07:29:41;;;;;;;5.53;1.70;;;32.50;42.10;;;;;;6204138;28;20061;-81
2022/08/23 07:32:44;;;;;;;4.20;1.52;;;33.00;40.90;;;;;;6204699;28;20050;-81
2022/08/23 07:35:48;;;;;;;2.70;1.17;;;33.80;40.00;;;;;;6203150;28;20536;-81
2022/08/23 07:38:50;;;;;;;5.95;1.80;;;34.40;38.60;;;;;;6200014;28;20043;-81
2022/08/23 07:41:52;;;;;;;7.00;1.23;;;34.60;38.30;;;;;;6208587;28;20057;-81
2022/08/23 07:44:56;;;;;;;7.68;2.47;;;34.80;38.40;;;;;;6228495;28;20077;-81
2022/08/23 07:48:00;;;;;;;4.60;1.60;;;34.80;38.30;;;;;;6218600;28;20122;-82
2022/08/23 07:51:04;;;;;;;4.15;1.52;;;34.20;38.70;;;;;;6211780;28;20046;-82
2022/08/23 07:54:09;;;;;;;1.98;1.08;;;33.50;39.80;;;;;;6211129;28;20050;-81
2022/08/23 07:57:11;;;;;;;4.68;1.25;;;32.70;40.50;;;;;;6210611;28;20046;-80
2022/08/23 08:00:15;;;;;;;2.75;1.02;;;32.00;41.50;;;;;;6210759;28;20046;-80
2022/08/23 08:03:17;;;;;;;9.75;2.00;;;31.40;42.20;;;;;;6211052;28;20074;-80
2022/08/23 08:06:21;;;;;;;5.95;1.13;;;31.00;43.10;;;;;;6210564;28;20054;-80
2022/08/23 08:09:23;;;;;;;4.93;1.20;;;30.80;43.30;;;;;;6210253;28;20062;-80
2022/08/23 08:12:25;;;;;;;5.00;1.35;;;30.50;44.10;;;;;;6206940;28;20304;-78
2022/08/23 08:15:28;;;;;;;7.43;1.30;;;30.50;44.40;;;;;;6205107;28;20042;-78
2022/08/23 08:18:30;;;;;;;3.80;1.10;;;30.50;44.00;;;;;;6205073;28;20049;-79
2022/08/23 08:21:32;;;;;;;4.25;1.65;;;30.20;44.30;;;;;;6204128;28;20531;-78
2022/08/23 08:24:34;;;;;;;6.32;1.90;;;30.10;45.10;;;;;;6205751;28;20169;-78
2022/08/23 08:27:36;;;;;;;3.40;1.27;;;30.10;44.80;;;;;;6209799;28;20057;-78
2022/08/23 08:30:39;;;;;;;7.13;1.92;;;30.20;45.00;;;;;;6206855;28;20054;-78
2022/08/23 08:33:41;;;;;;;4.68;1.20;;;30.30;44.80;;;;;;6208077;28;20766;-78
2022/08/23 08:36:45;;;;;;;5.18;1.40;;;30.40;44.30;;;;;;6206821;28;20073;-78
2022/08/23 08:39:47;;;;;;;6.45;1.40;;;30.60;45.00;;;;;;6199886;28;20042;-78
2022/08/23 08:43:06;;;;;;;4.40;1.45;;;30.70;44.00;;;;;;6207276;28;20053;-78
2022/08/23 08:46:17;;;;;;;3.30;1.08;;;30.90;43.60;;;;;;6209042;28;20055;-78
2022/08/23 08:49:31;;;;;;;1.83;0.90;;;31.10;43.70;;;;;;6206605;28;20046;-79
2022/08/23 08:52:38;;;;;;;4.18;1.48;;;31.20;43.20;;;;;;6212357;28;20432;-79
2022/08/23 08:55:45;;;;;;;5.45;1.58;;;31.30;43.20;;;;;;6207201;28;20053;-79
2022/08/23 08:58:50;;;;;;;4.07;1.67;;;31.50;42.90;;;;;;6213766;28;20041;-79
2022/08/23 09:01:53;;;;;;;3.15;1.17;;;31.60;42.50;;;;;;6233400;28;20060;-79
2022/08/23 09:04:55;;;;;;;2.28;1.20;;;31.70;42.30;;;;;;6231225;28;20046;-79
2022/08/23 09:08:12;;;;;;;3.90;0.88;;;31.80;42.30;;;;;;6235256;28;20060;-79
2022/08/23 09:11:24;;;;;;;5.13;1.35;;;32.00;42.10;;;;;;6233292;28;20042;-81
2022/08/23 09:14:49;;;;;;;3.97;1.13;;;32.20;41.60;;;;;;6233383;28;20056;-81
2022/08/23 09:17:55;;;;;;;8.00;1.25;;;32.40;41.20;;;;;;6230958;28;20048;-79
2022/08/23 09:21:00;;;;;;;3.03;0.80;;;32.50;41.00;;;;;;6230999;28;20056;-79
2022/08/23 09:24:03;;;;;;;15.95;1.48;;;32.70;41.10;;;;;;6232041;28;20037;-78
2022/08/23 09:27:06;;;;;;;5.85;1.30;;;32.70;40.30;;;;;;6231483;28;20046;-79
2022/08/23 09:30:10;;;;;;;7.40;1.10;;;32.80;40.20;;;;;;6231013;28;20100;-80
2022/08/23 09:33:17;;;;;;;4.15;1.00;;;32.80;40.50;;;;;;6229581;28;20056;-81
2022/08/23 09:36:23;;;;;;;2.92;1.10;;;32.90;40.30;;;;;;6228831;28;20049;-81
2022/08/23 09:39:28;;;;;;;4.50;1.35;;;32.90;39.90;;;;;;6227997;28;20058;-80
2022/08/23 09:42:32;;;;;;;8.55;1.60;;;33.10;39.80;;;;;;6227827;28;20133;-82
2022/08/23 09:45:36;;;;;;;7.30;1.40;;;33.20;40.00;;;;;;6229562;28;20042;-81
2022/08/23 09:48:41;;;;;;;3.05;0.80;;;33.30;39.80;;;;;;6227091;28;20054;-82
2022/08/23 09:51:43;;;;;;;5.63;0.80;;;33.50;39.20;;;;;;6228355;28;20054;-81
2022/08/23 09:54:55;;;;;;;5.10;1.27;;;34.40;39.00;;;;;;6229405;28;20519;-81
2022/08/23 09:57:58;;;;;;;5.53;1.38;;;35.50;37.70;;;;;;6229267;28;20054;-81
2022/08/23 10:01:12;;;;;;;5.10;1.15;;;36.20;36.50;;;;;;6228073;28;20042;-81
2022/08/23 10:04:21;;;;;;;3.40;1.52;;;36.40;36.10;;;;;;6227931;28;20061;-81
2022/08/23 10:07:33;;;;;;;5.05;0.90;;;36.00;36.10;;;;;;6227481;28;20045;-81
2022/08/23 10:10:42;;;;;;;3.85;1.17;;;35.50;36.30;;;;;;6228249;28;20048;-80
2022/08/23 10:13:44;;;;;;;2.83;1.00;;;35.20;36.70;;;;;;6227766;28;20050;-81
2022/08/23 10:16:57;;;;;;;2.28;0.90;;;35.00;37.10;;;;;;6227561;28;20046;-81
2022/08/23 10:20:11;;;;;;;1.77;1.13;;;35.00;37.00;;;;;;6226945;28;20042;-82
2022/08/23 10:23:23;;;;;;;3.63;1.33;;;35.10;36.60;;;;;;6228349;28;20038;-81
2022/08/23 10:26:29;;;;;;;2.90;1.02;;;35.10;36.30;;;;;;6227770;28;20046;-81
2022/08/23 10:29:36;;;;;;;3.28;0.80;;;35.30;36.60;;;;;;6226796;28;20042;-81
2022/08/23 10:32:53;;;;;;;3.60;0.98;;;35.40;36.20;;;;;;6226537;28;20515;-81
2022/08/23 10:36:03;;;;;;;2.75;0.95;;;35.80;35.80;;;;;;6227816;28;20415;-81
2022/08/23 10:39:12;;;;;;;4.90;1.48;;;35.90;35.40;;;;;;6226116;28;20427;-81
2022/08/23 10:42:32;;;;;;;4.97;0.93;;;36.00;35.10;;;;;;6225583;28;20057;-81
2022/08/23 10:45:37;;;;;;;5.03;1.02;;;36.20;35.00;;;;;;6203707;28;20050;-81
2022/08/23 10:48:47;;;;;;;1.95;0.95;;;36.20;34.50;;;;;;6220655;28;20048;-81
2022/08/23 10:51:51;;;;;;;4.45;0.95;;;36.50;34.20;;;;;;6227302;28;20045;-81
2022/08/23 10:55:05;;;;;;;7.70;1.00;;;36.80;33.80;;;;;;6227066;28;20045;-81
2022/08/23 10:58:11;;;;;;;1.50;0.85;;;37.10;33.70;;;;;;6226789;28;20062;-80
2022/08/23 11:01:16;;;;;;;6.63;0.98;;;37.30;33.10;;;;;;6227947;28;20072;-80
2022/08/23 11:04:26;;;;;;;6.38;1.38;;;37.50;33.10;;;;;;6240999;28;20049;-79
2022/08/23 11:07:33;;;;;;;4.53;1.30;;;37.60;32.90;;;;;;6238702;28;20120;-80
2022/08/23 11:10:46;;;;;;;6.32;1.20;;;37.80;32.80;;;;;;6232782;28;20042;-81
2022/08/23 11:13:52;;;;;;;6.78;1.38;;;37.90;32.50;;;;;;6232444;28;20644;-81
2022/08/23 11:16:59;;;;;;;5.05;0.90;;;38.20;32.10;;;;;;6231442;28;20046;-81
2022/08/23 11:20:06;;;;;;;2.92;0.95;;;38.40;31.90;;;;;;6231575;28;20154;-80
2022/08/23 11:23:13;;;;;;;4.80;0.88;;;38.70;32.20;;;;;;6230834;28;20407;-80
2022/08/23 11:27:00;;;;;;;5.15;1.13;;;38.90;31.80;;;;;;6231008;28;20082;-83
2022/08/23 11:30:39;;;;;;;1.65;0.70;;;38.90;31.20;;;;;;6230119;28;20389;-79
2022/08/23 11:33:46;;;;;;;11.07;2.53;;;38.50;31.60;;;;;;6232442;28;20053;-79
2022/08/23 11:37:21;;;;;;;2.47;0.80;;;38.70;31.50;;;;;;6232260;28;20054;-80
2022/08/23 11:40:55;;;;;;;7.13;1.63;;;38.90;30.60;;;;;;6221035;28;20109;-80
2022/08/23 11:44:22;;;;;;;2.17;0.98;;;39.10;29.90;;;;;;6217244;28;20054;-82
2022/08/23 11:47:28;;;;;;;6.50;0.88;;;39.20;30.20;;;;;;6196727;28;20065;-80
2022/08/23 11:50:38;;;;;;;4.13;0.80;;;39.30;30.30;;;;;;6220247;28;20054;-82
2022/08/23 11:53:57;;;;;;;2.60;1.10;;;39.50;29.90;;;;;;6219757;28;20047;-81
2022/08/23 11:57:07;;;;;;;2.80;1.05;;;39.70;29.30;;;;;;6220245;28;20056;-79
2022/08/23 12:00:17;;;;;;;3.70;1.02;;;39.80;29.00;;;;;;6216642;28;20050;-80
2022/08/23 12:03:25;;;;;;;2.17;0.80;;;39.90;29.10;;;;;;6217038;28;20166;-80
2022/08/23 12:06:40;;;;;;;1.10;0.70;;;39.90;29.30;;;;;;6216722;28;20047;-79
2022/08/23 12:09:52;;;;;;;2.88;0.93;;;40.10;28.90;;;;;;6218488;28;20078;-80
2022/08/23 12:13:27;;;;;;;3.22;0.73;;;40.30;28.50;;;;;;6219219;28;20073;-80
2022/08/23 12:16:37;;;;;;;2.35;0.60;;;40.60;28.30;;;;;;6219207;28;20122;-81
2022/08/23 12:19:42;;;;;;;2.72;1.00;;;40.80;28.00;;;;;;6210090;28;20134;-79
2022/08/23 12:22:57;;;;;;;1.67;0.70;;;40.90;27.90;;;;;;6215943;28;20052;-79
2022/08/23 12:26:03;;;;;;;2.65;0.73;;;41.00;27.60;;;;;;6244909;22;20068;-78
2022/08/23 12:29:11;;;;;;;2.03;0.90;;;41.20;27.50;;;;;;6223369;28;20411;-79
2022/08/23 12:32:19;;;;;;;3.08;0.90;;;41.30;27.30;;;;;;6223165;28;20541;-79
2022/08/23 12:35:34;;;;;;;2.47;0.57;;;41.40;26.90;;;;;;6210269;28;20081;-78
2022/08/23 12:38:44;;;;;;;5.65;0.75;;;41.40;26.90;;;;;;6198732;28;20042;-79
2022/08/23 12:41:54;;;;;;;6.40;1.20;;;41.30;27.00;;;;;;6198559;28;20060;-78
2022/08/23 12:45:03;;;;;;;6.10;0.70;;;40.80;26.50;;;;;;6196590;28;20042;-78
2022/08/23 12:48:10;;;;;;;2.00;0.60;;;39.70;26.70;;;;;;6196726;28;20049;-78
2022/08/23 12:51:12;;;;;;;1.13;0.68;;;39.10;27.20;;;;;;6197369;28;20050;-79
2022/08/23 12:54:19;;;;;;;3.17;0.55;;;38.80;27.40;;;;;;6197541;28;20054;-79
2022/08/23 12:57:23;;;;;;;;;;;38.60;27.60;;;;;;6197724;28;20058;-78
2022/08/23 13:00:29;;;;;;;3.83;0.70;;;38.60;27.60;;;;;;6196761;28;20311;-78
2022/08/23 13:03:36;;;;;;;2.25;0.70;;;38.80;27.20;;;;;;6197235;28;20061;-78
2022/08/23 13:06:42;;;;;;;2.13;0.70;;;38.60;27.40;;;;;;6196699;28;20510;-78
2022/08/23 13:09:44;;;;;;;2.35;0.95;;;38.40;27.40;;;;;;6196941;28;20073;-78
2022/08/23 13:12:46;;;;;;;1.95;0.55;;;37.80;27.20;;;;;;6200059;28;20488;-78
2022/08/23 13:15:55;;;;;;;1.63;0.52;;;37.20;27.60;;;;;;6200785;28;20047;-78
2022/08/23 13:19:15;;;;;;;1.88;0.90;;;36.60;27.90;;;;;;6197074;28;20047;-78
2022/08/23 13:22:23;;;;;;;3.67;0.68;;;36.30;28.30;;;;;;6176919;28;20144;-78
2022/08/23 13:25:28;;;;;;;2.63;0.63;;;36.50;28.00;;;;;;6177100;28;20043;-79
2022/08/23 13:28:30;;;;;;;2.35;1.25;;;36.90;27.70;;;;;;6176435;28;20054;-79
2022/08/23 13:31:55;;;;;;;1.83;0.93;;;37.40;27.70;;;;;;6176990;28;20051;-78
2022/08/23 13:35:34;;;;;;;4.28;0.82;;;38.20;27.60;;;;;;6178233;28;20053;-79
2022/08/23 13:38:35;;;;;;;1.58;0.50;;;39.00;27.40;;;;;;6176793;28;20054;-79
2022/08/23 13:41:37;;;;;;;2.28;0.60;;;39.70;26.80;;;;;;6177617;28;20066;-79
2022/08/23 13:44:39;;;;;;;1.65;0.70;;;40.00;26.40;;;;;;6187213;28;20046;-79
2022/08/23 13:47:47;;;;;;;5.63;0.70;;;39.60;26.20;;;;;;6199833;28;20057;-77
2022/08/23 13:50:50;;;;;;;2.13;0.88;;;39.20;26.70;;;;;;6182444;28;20051;-78
2022/08/23 13:53:53;;;;;;;2.13;0.68;;;39.30;26.60;;;;;;6177502;28;20056;-79
2022/08/23 13:56:58;;;;;;;1.98;0.85;;;39.60;26.50;;;;;;6176481;28;20131;-79
2022/08/23 14:00:01;;;;;;;1.13;0.52;;;40.10;26.30;;;;;;6176594;28;20054;-78
2022/08/23 14:03:03;;;;;;;2.63;0.73;;;40.40;26.20;;;;;;6177172;28;20051;-78
2022/08/23 14:06:06;;;;;;;3.33;0.88;;;40.50;26.00;;;;;;6177655;28;20193;-79
2022/08/23 14:09:08;;;;;;;8.95;0.82;;;40.20;26.50;;;;;;6176198;28;20050;-79
2022/08/23 14:12:14;;;;;;;2.10;0.88;;;40.10;26.50;;;;;;6179056;28;20046;-78
2022/08/23 14:15:17;;;;;;;1.95;0.57;;;40.50;26.40;;;;;;6176264;28;20050;-79
2022/08/23 14:18:18;;;;;;;1.55;0.70;;;40.20;26.20;;;;;;6192458;28;20057;-77
2022/08/23 14:21:21;;;;;;;1.85;0.50;;;39.60;26.60;;;;;;6179563;28;20051;-78
2022/08/23 14:24:23;;;;;;;3.20;0.68;;;39.50;26.50;;;;;;6176516;28;20047;-79
2022/08/23 14:27:25;;;;;;;0.93;0.65;;;39.30;26.80;;;;;;6187164;28;20039;-78
2022/08/23 14:30:29;;;;;;;3.10;0.60;;;39.40;26.90;;;;;;6201709;28;20057;-79
2022/08/23 14:33:31;;;;;;;3.35;0.60;;;39.60;27.20;;;;;;6202117;28;20062;-79
2022/08/23 14:36:34;;;;;;;5.80;0.80;;;39.90;27.10;;;;;;6200836;28;20053;-79
2022/08/23 14:39:36;;;;;;;1.65;0.82;;;40.30;26.90;;;;;;6200188;28;20050;-79
2022/08/23 14:42:37;;;;;;;3.08;0.85;;;40.50;26.90;;;;;;6201327;28;20042;-80
2022/08/23 14:45:39;;;;;;;1.50;0.75;;;40.50;26.60;;;;;;6200963;28;20046;-79
2022/08/23 14:48:41;;;;;;;3.20;0.73;;;40.60;26.80;;;;;;6198923;28;20097;-79
2022/08/23 14:51:47;;;;;;;4.05;0.80;;;40.60;26.80;;;;;;6176892;28;20054;-79
2022/08/23 14:54:49;;;;;;;2.63;0.60;;;40.60;26.70;;;;;;6176073;28;20055;-79
2022/08/23 14:57:51;;;;;;;1.98;0.70;;;40.60;26.60;;;;;;6200785;28;20054;-78
2022/08/23 15:00:53;;;;;;;5.85;1.00;;;40.50;26.70;;;;;;6200801;28;20050;-79
2022/08/23 15:03:55;;;;;;;2.00;0.93;;;40.50;26.60;;;;;;6200656;28;20054;-80
2022/08/23 15:06:58;;;;;;;4.10;0.95;;;40.50;26.50;;;;;;6192934;28;20047;-79
2022/08/23 15:10:00;;;;;;;8.82;1.15;;;40.50;26.80;;;;;;6200472;28;20198;-79
2022/08/23 15:13:02;;;;;;;2.00;0.70;;;40.40;26.70;;;;;;6201187;28;20046;-79
2022/08/23 15:16:06;;;;;;;1.40;0.70;;;40.30;26.60;;;;;;6200210;28;20047;-79
2022/08/23 15:19:08;;;;;;;4.57;0.85;;;40.30;26.60;;;;;;6195689;28;20133;-80
2022/08/23 15:22:11;;;;;;;3.50;0.73;;;40.30;26.60;;;;;;6176091;28;20057;-79
2022/08/23 15:25:13;;;;;;;2.60;0.90;;;40.20;26.70;;;;;;6176087;28;20424;-78
2022/08/23 15:28:17;;;;;;;6.57;0.80;;;40.20;26.80;;;;;;6175602;28;20047;-79
2022/08/23 15:31:20;;;;;;;3.28;0.70;;;40.10;26.90;;;;;;6175266;28;20053;-78
2022/08/23 15:34:22;;;;;;;3.08;0.68;;;39.90;26.70;;;;;;6174348;28;20073;-78
2022/08/23 15:37:25;;;;;;;2.53;0.80;;;39.70;26.90;;;;;;6174786;28;20069;-79
2022/08/23 15:40:27;;;;;;;2.55;0.85;;;39.60;26.80;;;;;;6174067;28;20046;-78
2022/08/23 15:43:29;;;;;;;3.00;0.52;;;39.60;26.90;;;;;;6174431;28;20051;-77
2022/08/23 15:46:31;;;;;;;1.65;0.60;;;39.50;27.00;;;;;;6183373;28;20046;-78
2022/08/23 15:49:36;;;;;;;4.07;1.00;;;39.20;27.00;;;;;;6197104;28;20093;-78
2022/08/23 15:52:39;;;;;;;5.15;0.52;;;38.90;27.10;;;;;;6198031;28;20046;-78
2022/08/23 15:55:41;;;;;;;1.73;0.90;;;38.80;27.30;;;;;;6197552;28;20046;-79
2022/08/23 15:58:43;;;;;;;6.30;1.33;;;38.40;27.30;;;;;;6197387;28;20046;-78
2022/08/23 16:01:45;;;;;;;5.00;0.80;;;37.90;27.40;;;;;;6197545;28;20054;-78
2022/08/23 16:04:47;;;;;;;2.95;0.57;;;37.50;27.60;;;;;;6197547;28;20057;-79
2022/08/23 16:07:53;;;;;;;1.38;0.50;;;37.30;27.80;;;;;;6197225;28;20054;-76
2022/08/23 16:10:56;;;;;;;4.68;0.88;;;37.10;28.00;;;;;;6196835;28;20061;-77
2022/08/23 16:13:59;;;;;;;2.30;0.95;;;36.80;28.20;;;;;;6194318;28;20050;-78